Time;durP1;ratioP1;P1;durP2;ratioP2;P2;SDS_P1;SDS_P2;PMS_P1;PMS_P2;Temp;Humidity;BMP_temperature;BMP_pressure;BME280_temperature;BME280_humidity;BME280_pressure;Samples;Min_cycle;Max_cycle;Signal;HPM_P1;HPM_P2
2021/12/30 00:00:09;;;;;;;2.30;1.10;;;;;;;10.32;100.00;95364.09;6125870;23;20164;-84
2021/12/30 00:02:34;;;;;;;3.33;1.00;;;;;;;10.34;100.00;95385.53;6100646;23;20172;-84
2021/12/30 00:04:59;;;;;;;1.27;1.00;;;;;;;10.40;100.00;95390.91;6126216;23;20159;-83
2021/12/30 00:07:25;;;;;;;4.13;1.23;;;;;;;10.39;100.00;95393.66;6125064;23;20168;-86
2021/12/30 00:09:50;;;;;;;1.77;1.30;;;;;;;10.40;100.00;95396.13;6125663;23;20186;-83
2021/12/30 00:12:15;;;;;;;2.40;1.50;;;;;;;10.35;100.00;95403.56;6125612;23;20152;-85
2021/12/30 00:14:41;;;;;;;1.97;1.20;;;;;;;10.37;100.00;95406.81;6125157;23;20190;-84
2021/12/30 00:17:06;;;;;;;2.20;1.00;;;;;;;10.36;100.00;95414.75;6125472;23;20182;-85
2021/12/30 00:19:31;;;;;;;2.50;1.40;;;;;;;10.37;100.00;95424.97;6125406;23;20570;-85
2021/12/30 00:21:57;;;;;;;1.67;1.30;;;;;;;10.33;100.00;95430.59;6124839;23;20207;-85
2021/12/30 00:24:22;;;;;;;3.37;1.10;;;;;;;10.34;100.00;95440.03;6125475;23;20179;-85
2021/12/30 00:26:48;;;;;;;1.37;0.80;;;;;;;10.33;100.00;95441.78;6100354;23;20172;-85
2021/12/30 00:29:13;;;;;;;2.43;1.00;;;;;;;10.34;100.00;95450.44;6125255;23;20160;-85
2021/12/30 00:31:39;;;;;;;1.60;0.77;;;;;;;10.33;100.00;95467.75;6124697;23;20595;-86
2021/12/30 00:34:04;;;;;;;2.13;0.90;;;;;;;10.36;100.00;95446.72;6125558;23;20600;-83
2021/12/30 00:36:29;;;;;;;2.47;1.00;;;;;;;10.41;100.00;95470.44;6077342;23;20676;-84
2021/12/30 00:38:55;;;;;;;0.83;0.60;;;;;;;10.36;100.00;95462.28;6125911;23;20152;-84
2021/12/30 00:41:20;;;;;;;3.13;1.00;;;;;;;10.29;100.00;95458.66;6125005;23;20249;-83
2021/12/30 00:43:46;;;;;;;1.13;0.80;;;;;;;10.25;100.00;95462.50;6126094;23;20622;-84
2021/12/30 00:46:12;;;;;;;2.17;1.10;;;;;;;10.26;100.00;95468.50;6101119;23;20180;-84
2021/12/30 00:48:39;;;;;;;3.03;0.90;;;;;;;10.29;100.00;95466.44;6100666;23;20151;-83
2021/12/30 00:51:05;;;;;;;3.10;1.00;;;;;;;10.33;100.00;95475.53;6101392;23;20151;-83
2021/12/30 00:53:31;;;;;;;1.77;0.93;;;;;;;10.31;100.00;95481.84;6100795;23;20171;-84
2021/12/30 00:55:56;;;;;;;3.40;1.13;;;;;;;10.33;100.00;95488.53;6125550;23;20175;-84
2021/12/30 00:58:21;;;;;;;1.43;0.90;;;;;;;10.31;100.00;95482.66;6126459;23;20152;-85
2021/12/30 01:00:47;;;;;;;2.83;1.43;;;;;;;10.31;100.00;95489.63;6126519;23;20191;-84
2021/12/30 01:03:14;;;;;;;2.53;1.37;;;;;;;10.25;100.00;95488.47;6101353;23;20972;-84
2021/12/30 01:05:39;;;;;;;2.63;1.50;;;;;;;10.30;100.00;95483.63;6077918;23;20183;-85
2021/12/30 01:08:07;;;;;;;2.80;1.67;;;;;;;10.27;100.00;95483.94;6077731;23;20199;-85
2021/12/30 01:10:32;;;;;;;2.83;1.13;;;;;;;10.26;100.00;95479.72;6101470;23;20152;-84
2021/12/30 01:13:00;;;;;;;1.93;1.20;;;;;;;10.28;100.00;95482.97;6125050;23;20236;-83
2021/12/30 01:15:34;;;;;;;3.07;1.13;;;;;;;10.26;100.00;95477.13;6102336;23;20512;-84
2021/12/30 01:18:24;;;;;;;2.87;1.20;;;;;;;10.30;100.00;95493.19;6103270;23;20139;-83
2021/12/30 01:20:47;;;;;;;2.60;1.43;;;;;;;10.27;100.00;95498.69;6105308;23;20184;-85
2021/12/30 01:23:12;;;;;;;2.67;1.30;;;;;;;10.22;100.00;95499.13;6099957;23;20164;-86
2021/12/30 01:25:37;;;;;;;3.03;1.17;;;;;;;10.25;100.00;95495.41;6124561;23;20649;-86
2021/12/30 01:28:03;;;;;;;2.90;1.10;;;;;;;10.25;100.00;95500.59;6125690;23;20156;-83
2021/12/30 01:30:28;;;;;;;4.47;1.50;;;;;;;10.16;100.00;95502.28;6101276;23;20599;-85
2021/12/30 01:32:54;;;;;;;2.40;1.10;;;;;;;10.09;100.00;95514.19;6124471;23;20499;-85
2021/12/30 01:35:23;;;;;;;3.70;1.07;;;;;;;10.06;100.00;95523.06;6124970;23;20156;-85
2021/12/30 01:37:50;;;;;;;1.80;1.30;;;;;;;10.06;100.00;95523.06;6127509;23;20532;-85
2021/12/30 01:40:17;;;;;;;2.50;2.00;;;;;;;10.04;100.00;95524.19;6126678;23;20156;-85
2021/12/30 01:42:42;;;;;;;3.30;1.30;;;;;;;9.96;100.00;95537.88;6100825;23;20160;-85
2021/12/30 01:45:09;;;;;;;2.30;1.30;;;;;;;9.99;100.00;95536.78;6125698;23;20152;-85
2021/12/30 01:47:36;;;;;;;2.93;1.40;;;;;;;10.00;100.00;95539.25;6111143;23;20164;-85
2021/12/30 01:50:03;;;;;;;1.50;1.20;;;;;;;10.01;100.00;95540.06;6151216;23;20144;-85
2021/12/30 01:52:28;;;;;;;2.33;1.03;;;;;;;10.03;100.00;95553.69;6148434;23;20172;-85
2021/12/30 01:54:53;;;;;;;3.47;1.10;;;;;;;10.05;100.00;95559.53;6104687;23;20219;-86
2021/12/30 01:57:19;;;;;;;2.73;1.17;;;;;;;10.13;100.00;95557.06;6128243;23;20180;-85
2021/12/30 01:59:44;;;;;;;6.87;1.27;;;;;;;10.10;100.00;95563.34;6105907;23;20250;-85
2021/12/30 02:02:10;;;;;;;3.70;1.00;;;;;;;10.17;100.00;95563.59;6128043;23;20188;-85
2021/12/30 02:04:35;;;;;;;2.90;1.30;;;;;;;10.16;100.00;95570.56;6104710;23;20152;-85
2021/12/30 02:07:01;;;;;;;2.20;1.20;;;;;;;10.17;100.00;95568.78;6129093;23;20521;-85
2021/12/30 02:09:26;;;;;;;2.80;1.00;;;;;;;10.20;100.00;95573.69;6103673;23;20171;-85
2021/12/30 02:11:53;;;;;;;1.90;0.97;;;;;;;10.24;100.00;95585.44;6128082;23;20384;-86
2021/12/30 02:14:19;;;;;;;4.33;1.13;;;;;;;10.28;100.00;95589.38;6104004;23;20164;-86
2021/12/30 02:16:44;;;;;;;2.10;0.90;;;;;;;10.30;100.00;95591.81;6103951;23;20176;-85
2021/12/30 02:19:09;;;;;;;2.60;0.90;;;;;;;10.27;100.00;95585.16;6128499;23;20167;-85
2021/12/30 02:21:35;;;;;;;0.93;0.90;;;;;;;10.37;100.00;95593.72;6127702;23;20214;-84
2021/12/30 02:24:00;;;;;;;3.00;1.03;;;;;;;10.39;100.00;95590.97;6128169;23;20540;-86
2021/12/30 02:26:26;;;;;;;1.73;0.73;;;;;;;10.40;100.00;95588.22;6128572;23;20293;-85
2021/12/30 02:28:51;;;;;;;2.13;1.10;;;;;;;10.43;100.00;95577.56;6104331;23;20152;-85
2021/12/30 02:31:24;;;;;;;1.33;1.00;;;;;;;10.45;100.00;95586.00;6127234;23;20163;-85
2021/12/30 02:33:49;;;;;;;1.67;0.80;;;;;;;10.48;100.00;95585.72;6078085;23;20164;-85
2021/12/30 02:36:22;;;;;;;3.33;1.33;;;;;;;10.49;100.00;95582.16;6104045;23;20638;-86
2021/12/30 02:38:48;;;;;;;1.93;1.37;;;;;;;10.45;100.00;95588.59;6081164;23;20168;-85
2021/12/30 02:41:17;;;;;;;1.00;1.00;;;;;;;10.49;100.00;95592.53;6127737;23;20203;-85
2021/12/30 02:43:44;;;;;;;2.77;0.90;;;;;;;10.53;100.00;95592.25;6079964;23;20167;-85
2021/12/30 02:46:10;;;;;;;1.63;1.00;;;;;;;10.52;100.00;95575.88;6079610;23;20179;-85
2021/12/30 02:48:37;;;;;;;0.90;0.80;;;;;;;10.53;100.00;95592.25;6102654;23;20211;-85
2021/12/30 02:51:05;;;;;;;1.13;1.00;;;;;;;10.53;100.00;95590.47;6078713;23;20164;-85
2021/12/30 02:53:31;;;;;;;0.77;0.77;;;;;;;10.50;100.00;95593.34;6126898;23;20230;-84
2021/12/30 02:55:57;;;;;;;1.00;0.90;;;;;;;10.50;100.00;95596.75;6102522;23;20398;-85
2021/12/30 02:58:23;;;;;;;1.23;1.00;;;;;;;10.47;100.00;95591.88;6127800;23;20160;-85
2021/12/30 03:00:51;;;;;;;2.10;0.87;;;;;;;10.52;100.00;95604.44;6098218;23;20192;-85
2021/12/30 03:03:18;;;;;;;0.90;0.90;;;;;;;10.56;100.00;95608.34;6050941;23;20508;-84
2021/12/30 03:05:44;;;;;;;2.30;0.90;;;;;;;10.54;100.00;95604.28;6053189;23;20232;-82
2021/12/30 03:08:09;;;;;;;0.70;0.70;;;;;;;10.54;100.00;95612.06;6052932;23;20160;-84
2021/12/30 03:10:34;;;;;;;0.70;0.70;;;;;;;10.54;100.00;95599.91;6076725;23;20161;-83
2021/12/30 03:13:08;;;;;;;2.20;0.90;;;;;;;10.56;100.00;95608.34;6100299;23;20157;-84
2021/12/30 03:15:34;;;;;;;0.83;0.70;;;;;;;10.56;100.00;95612.72;6076501;23;20176;-85
2021/12/30 03:18:00;;;;;;;1.70;0.73;;;;;;;10.52;100.00;95601.00;6053268;23;20583;-84
2021/12/30 03:20:25;;;;;;;1.70;0.80;;;;;;;10.49;100.00;95610.69;6052301;23;20183;-83
2021/12/30 03:22:51;;;;;;;1.17;0.80;;;;;;;10.56;100.00;95620.53;6075314;23;20666;-84
2021/12/30 03:25:17;;;;;;;0.47;0.47;;;;;;;10.52;100.00;95625.19;6053292;23;20159;-82
2021/12/30 03:27:43;;;;;;;0.77;0.40;;;;;;;10.58;100.00;95619.41;6051920;23;20168;-85
2021/12/30 03:30:12;;;;;;;1.23;0.50;;;;;;;10.62;100.00;95620.75;6050397;23;20168;-84
2021/12/30 03:32:40;;;;;;;0.73;0.60;;;;;;;10.57;100.00;95629.94;6097745;23;20220;-84
2021/12/30 03:35:07;;;;;;;0.67;0.53;;;;;;;10.57;100.00;95640.31;6048595;23;20177;-84
2021/12/30 03:37:32;;;;;;;1.20;0.43;;;;;;;10.60;100.00;95640.88;6098386;23;20179;-84
2021/12/30 03:39:57;;;;;;;2.20;0.70;;;;;;;10.59;100.00;95639.22;6094940;23;20492;-85
2021/12/30 03:42:23;;;;;;;1.30;0.60;;;;;;;10.66;100.00;95644.66;6069370;23;20274;-84
2021/12/30 03:44:48;;;;;;;2.00;0.50;;;;;;;10.60;100.00;95646.06;6070069;23;20651;-83
2021/12/30 03:47:17;;;;;;;0.40;0.40;;;;;;;10.61;100.00;95646.88;6069861;23;20204;-84
2021/12/30 03:49:45;;;;;;;0.30;0.30;;;;;;;10.60;100.00;95646.06;6094089;23;20153;-84
2021/12/30 03:52:19;;;;;;;1.20;0.50;;;;;;;10.63;100.00;95652.75;6069539;23;20611;-82
2021/12/30 03:54:44;;;;;;;0.63;0.37;;;;;;;10.62;100.00;95658.91;6071151;23;20575;-84
2021/12/30 03:57:09;;;;;;;0.40;0.40;;;;;;;10.65;100.00;95664.59;6069809;23;20204;-82
2021/12/30 03:59:35;;;;;;;0.40;0.40;;;;;;;10.63;100.00;95665.72;6069895;23;20224;-84
2021/12/30 04:02:00;;;;;;;0.40;0.40;;;;;;;10.60;100.00;95660.81;6085784;23;20424;-82
2021/12/30 04:04:25;;;;;;;1.23;0.33;;;;;;;10.62;100.00;95684.88;6093887;23;20160;-81
2021/12/30 04:06:51;;;;;;;0.30;0.30;;;;;;;10.59;100.00;95674.75;6093777;23;20527;-82
2021/12/30 04:09:18;;;;;;;0.83;0.70;;;;;;;10.59;100.00;95685.13;6093949;23;20180;-82
2021/12/30 04:11:43;;;;;;;0.60;0.60;;;;;;;10.56;100.00;95688.03;6093083;23;20565;-82
2021/12/30 04:14:08;;;;;;;0.30;0.30;;;;;;;10.55;100.00;95692.41;6094130;23;20230;-84
2021/12/30 04:16:34;;;;;;;0.40;0.40;;;;;;;10.53;100.00;95689.16;6093952;23;20812;-85
2021/12/30 04:19:01;;;;;;;0.83;0.80;;;;;;;10.53;100.00;95693.53;6093858;23;20622;-84
2021/12/30 04:21:26;;;;;;;0.60;0.60;;;;;;;10.50;100.00;95692.00;6092709;23;20524;-84
2021/12/30 04:23:51;;;;;;;0.60;0.40;;;;;;;10.46;100.00;95688.91;6093974;23;20153;-85
2021/12/30 04:26:17;;;;;;;0.73;0.40;;;;;;;10.44;100.00;95688.22;6093792;23;20184;-83
2021/12/30 04:28:44;;;;;;;0.90;0.90;;;;;;;10.45;100.00;95687.25;6094309;23;20156;-86
2021/12/30 04:31:10;;;;;;;0.40;0.40;;;;;;;10.49;100.00;95693.78;6093995;23;20160;-82
2021/12/30 04:33:35;;;;;;;0.87;0.20;;;;;;;10.46;100.00;95696.69;6093658;23;20159;-82
2021/12/30 04:36:00;;;;;;;0.20;0.20;;;;;;;10.48;100.00;95702.53;6092218;23;20184;-82
2021/12/30 04:38:28;;;;;;;0.30;0.30;;;;;;;10.47;100.00;95700.91;6093676;23;20479;-83
2021/12/30 04:40:54;;;;;;;0.20;0.20;;;;;;;10.46;100.00;95707.06;6117861;23;20774;-83
2021/12/30 04:43:19;;;;;;;0.50;0.20;;;;;;;10.50;100.00;95705.00;6092918;23;20184;-83
2021/12/30 04:45:46;;;;;;;0.10;0.10;;;;;;;10.47;100.00;95713.91;6093344;23;20232;-82
2021/12/30 04:48:12;;;;;;;0.20;0.20;;;;;;;10.54;100.00;95713.31;6093545;23;20554;-83
2021/12/30 04:50:37;;;;;;;0.20;0.20;;;;;;;10.48;100.00;95712.94;6069205;23;20160;-83
2021/12/30 04:53:03;;;;;;;1.23;0.33;;;;;;;10.54;100.00;95713.31;6094182;23;20157;-83
2021/12/30 04:55:28;;;;;;;0.20;0.20;;;;;;;10.57;100.00;95718.22;6117521;23;20223;-83
2021/12/30 04:57:54;;;;;;;1.40;0.20;;;;;;;10.57;100.00;95720.81;6093557;23;20555;-84
2021/12/30 05:00:19;;;;;;;3.50;0.40;;;;;;;10.52;100.00;95716.06;6122085;23;20148;-83
2021/12/30 05:03:08;;;;;;;0.47;0.20;;;;;;;10.55;100.00;95720.97;6151216;23;20140;-82
2021/12/30 05:05:36;;;;;;;0.57;0.50;;;;;;;10.56;100.00;95721.78;6132867;23;20188;-84
2021/12/30 05:08:01;;;;;;;0.33;0.30;;;;;;;10.52;100.00;95720.44;6104190;23;20160;-84
2021/12/30 05:10:26;;;;;;;0.33;0.33;;;;;;;10.58;100.00;95732.84;6128283;23;20156;-84
2021/12/30 05:12:52;;;;;;;0.40;0.30;;;;;;;10.59;100.00;95732.69;6078938;23;20214;-84
2021/12/30 05:15:17;;;;;;;0.57;0.40;;;;;;;10.60;100.00;95734.34;6127815;23;20179;-84
2021/12/30 05:17:43;;;;;;;0.37;0.20;;;;;;;10.60;100.00;95738.69;6126983;23;20163;-84
2021/12/30 05:20:10;;;;;;;1.03;0.20;;;;;;;10.60;100.00;95743.91;6127304;23;20171;-84
2021/12/30 05:22:35;;;;;;;0.20;0.20;;;;;;;10.58;100.00;95743.22;6102518;23;20269;-83
2021/12/30 05:25:00;;;;;;;0.33;0.23;;;;;;;10.58;100.00;95738.03;6126680;23;20164;-84
2021/12/30 05:27:26;;;;;;;0.20;0.20;;;;;;;10.62;100.00;95736.81;6078435;23;20219;-84
2021/12/30 05:29:51;;;;;;;0.33;0.33;;;;;;;10.64;100.00;95738.28;6126311;23;20227;-84
2021/12/30 05:32:16;;;;;;;0.27;0.27;;;;;;;10.66;100.00;95738.13;6126078;23;20160;-84
2021/12/30 05:34:42;;;;;;;0.60;0.20;;;;;;;10.66;100.00;95738.13;6125866;23;20175;-83
2021/12/30 05:37:07;;;;;;;0.47;0.30;;;;;;;10.65;100.00;95752.91;6127526;23;20180;-82
2021/12/30 05:39:35;;;;;;;0.60;0.60;;;;;;;10.60;100.00;95744.75;6127448;23;20167;-84
2021/12/30 05:42:01;;;;;;;0.57;0.50;;;;;;;10.65;100.00;95750.31;6102539;23;20179;-83
2021/12/30 05:44:26;;;;;;;0.47;0.30;;;;;;;10.62;100.00;95749.78;6102950;23;20168;-83
2021/12/30 05:46:52;;;;;;;0.33;0.33;;;;;;;10.65;100.00;95750.31;6126952;23;20381;-83
2021/12/30 05:49:17;;;;;;;0.30;0.30;;;;;;;10.63;100.00;95756.63;6127249;23;20167;-84
2021/12/30 05:51:42;;;;;;;0.57;0.50;;;;;;;10.63;100.00;95756.63;6101483;23;20160;-84
2021/12/30 05:54:08;;;;;;;1.83;0.53;;;;;;;10.65;100.00;95763.28;6126253;23;20215;-83
2021/12/30 05:56:33;;;;;;;0.63;0.50;;;;;;;10.60;100.00;95765.53;6126155;23;20204;-83
2021/12/30 05:58:59;;;;;;;1.30;1.20;;;;;;;10.61;100.00;95758.53;6126109;23;20156;-83
2021/12/30 06:01:24;;;;;;;0.40;0.40;;;;;;;10.62;100.00;95754.97;6125595;23;20586;-85
2021/12/30 06:03:49;;;;;;;1.07;0.60;;;;;;;10.59;100.00;95763.03;6126105;23;20203;-84
2021/12/30 06:06:15;;;;;;;0.40;0.40;;;;;;;10.61;100.00;95761.16;6126163;23;20180;-85
2021/12/30 06:08:40;;;;;;;0.40;0.40;;;;;;;10.60;100.00;95764.66;6126288;23;20159;-84
2021/12/30 06:11:05;;;;;;;0.40;0.40;;;;;;;10.62;100.00;95762.78;6125470;23;20156;-84
2021/12/30 06:13:31;;;;;;;0.30;0.30;;;;;;;10.66;100.00;95771.91;6076416;23;20631;-85
2021/12/30 06:15:56;;;;;;;0.40;0.40;;;;;;;10.64;100.00;95779.84;6125691;23;20246;-84
2021/12/30 06:18:21;;;;;;;0.90;0.40;;;;;;;10.66;100.00;95777.09;6125297;23;20160;-84
2021/12/30 06:20:46;;;;;;;0.67;0.67;;;;;;;10.69;100.00;95787.19;6125440;23;20555;-83
2021/12/30 06:23:12;;;;;;;0.60;0.60;;;;;;;10.70;100.00;95796.66;6124266;23;20160;-84
2021/12/30 06:25:37;;;;;;;0.93;0.50;;;;;;;10.69;100.00;95798.44;6124995;23;20179;-83
2021/12/30 06:28:03;;;;;;;0.50;0.50;;;;;;;10.74;100.00;95798.00;6125112;23;20171;-84
2021/12/30 06:30:28;;;;;;;0.30;0.30;;;;;;;10.79;100.00;95795.78;6124891;23;20158;-85
2021/12/30 06:32:54;;;;;;;0.80;0.40;;;;;;;10.76;100.00;95796.06;6123938;23;20203;-85
2021/12/30 06:35:19;;;;;;;0.30;0.30;;;;;;;10.77;100.00;95797.69;6122838;23;20160;-84
2021/12/30 06:37:44;;;;;;;1.57;0.50;;;;;;;10.75;100.00;95810.00;6124339;23;20156;-84
2021/12/30 06:40:12;;;;;;;4.33;0.60;;;;;;;10.75;100.00;95807.41;6123845;23;20152;-84
2021/12/30 06:42:38;;;;;;;0.30;0.30;;;;;;;10.76;100.00;95803.84;6098525;23;20247;-83
2021/12/30 06:45:04;;;;;;;0.60;0.60;;;;;;;10.78;100.00;95805.38;6098802;23;20641;-84
2021/12/30 06:47:29;;;;;;;0.67;0.43;;;;;;;10.75;100.00;95802.22;6075168;23;20180;-84
2021/12/30 06:50:00;;;;;;;1.37;0.40;;;;;;;10.76;100.00;95809.03;6123428;23;20463;-84
2021/12/30 06:52:25;;;;;;;0.50;0.50;;;;;;;10.77;100.00;95808.91;6122462;23;20530;-82
2021/12/30 06:54:51;;;;;;;0.50;0.50;;;;;;;10.82;100.00;95813.69;6123649;23;20157;-83
2021/12/30 06:57:16;;;;;;;0.53;0.40;;;;;;;10.77;100.00;95813.28;6124031;23;20250;-84
2021/12/30 06:59:41;;;;;;;0.80;0.57;;;;;;;10.82;100.00;95816.28;6098908;23;20210;-84
2021/12/30 07:02:07;;;;;;;0.50;0.50;;;;;;;10.76;100.00;95822.84;6123260;23;20191;-85
2021/12/30 07:04:33;;;;;;;0.30;0.30;;;;;;;10.79;100.00;95824.38;6099647;23;20172;-84
2021/12/30 07:06:58;;;;;;;0.70;0.40;;;;;;;10.79;100.00;95829.56;6099239;23;20172;-84
2021/12/30 07:09:24;;;;;;;0.40;0.40;;;;;;;10.79;100.00;95829.56;6123547;23;20160;-84
2021/12/30 07:11:50;;;;;;;1.53;0.40;;;;;;;10.78;100.00;95835.72;6123164;23;20159;-84
2021/12/30 07:14:17;;;;;;;2.87;0.40;;;;;;;10.81;100.00;95839.81;6099292;23;20164;-84
2021/12/30 07:16:42;;;;;;;0.60;0.30;;;;;;;10.84;100.00;95849.91;6099170;23;20183;-82
2021/12/30 07:19:07;;;;;;;0.30;0.30;;;;;;;10.85;100.00;95856.75;6123317;23;20175;-84
2021/12/30 07:21:32;;;;;;;0.30;0.30;;;;;;;10.89;100.00;95868.50;6122725;23;20199;-84
2021/12/30 07:23:58;;;;;;;0.20;0.20;;;;;;;10.86;100.00;95879.97;6123442;23;20538;-84
2021/12/30 07:26:23;;;;;;;1.90;0.50;;;;;;;10.84;100.00;95868.91;6123614;23;20183;-85
2021/12/30 07:28:48;;;;;;;0.77;0.30;;;;;;;10.87;100.00;95873.03;6123180;23;20163;-84
2021/12/30 07:31:14;;;;;;;0.40;0.40;;;;;;;10.85;100.00;95878.34;6123312;23;20156;-82
2021/12/30 07:33:39;;;;;;;0.30;0.30;;;;;;;10.83;100.00;95874.25;6099635;23;20606;-83
2021/12/30 07:36:04;;;;;;;0.30;0.30;;;;;;;10.82;100.00;95876.03;6123419;23;20199;-85
2021/12/30 07:38:30;;;;;;;0.20;0.20;;;;;;;10.82;100.00;95868.25;6123913;23;20222;-83
2021/12/30 07:40:55;;;;;;;0.30;0.30;;;;;;;10.82;100.00;95877.81;6075826;23;20184;-83
2021/12/30 07:43:20;;;;;;;0.53;0.30;;;;;;;10.78;100.00;95877.28;6123690;23;20231;-85
2021/12/30 07:45:46;;;;;;;0.77;0.50;;;;;;;10.82;100.00;95883.00;6099079;23;20183;-85
2021/12/30 07:48:11;;;;;;;0.97;0.90;;;;;;;10.81;100.00;95882.19;6123560;23;20160;-85
2021/12/30 07:50:36;;;;;;;0.60;0.60;;;;;;;10.84;100.00;95876.69;6123425;23;20166;-85
2021/12/30 07:53:02;;;;;;;0.70;0.70;;;;;;;10.89;100.00;95874.50;6098561;23;20160;-84
2021/12/30 07:55:27;;;;;;;0.30;0.30;;;;;;;10.92;100.00;95889.81;6073532;23;20160;-84
2021/12/30 07:57:57;;;;;;;0.27;0.27;;;;;;;10.93;100.00;95891.44;6124150;23;20235;-84
2021/12/30 08:00:24;;;;;;;0.50;0.50;;;;;;;10.99;100.00;95900.47;6123981;23;20140;-85
2021/12/30 08:02:49;;;;;;;0.80;0.60;;;;;;;11.00;100.00;95889.09;6099585;23;20152;-85
2021/12/30 08:05:18;;;;;;;1.40;0.30;;;;;;;11.03;100.00;95894.00;6124730;23;20163;-85
2021/12/30 08:07:48;;;;;;;0.33;0.33;;;;;;;11.07;100.00;95901.41;6076408;23;20160;-85
2021/12/30 08:10:15;;;;;;;0.30;0.30;;;;;;;11.09;100.00;95906.44;6101585;23;20501;-86
2021/12/30 08:12:42;;;;;;;0.20;0.20;;;;;;;11.13;100.00;95906.97;6095793;23;20164;-86
2021/12/30 08:15:08;;;;;;;0.40;0.40;;;;;;;11.18;100.00;95900.41;6126700;23;20167;-86
2021/12/30 08:17:34;;;;;;;1.67;1.10;;;;;;;11.17;100.00;95903.16;6115792;23;20188;-86
2021/12/30 08:20:04;;;;;;;0.60;0.60;;;;;;;11.15;100.00;95910.28;6082071;23;20247;-86
2021/12/30 08:22:29;;;;;;;1.10;0.73;;;;;;;11.17;100.00;95908.34;6104750;23;20183;-86
2021/12/30 08:24:55;;;;;;;1.00;0.90;;;;;;;11.26;100.00;95910.09;6105469;23;20162;-86
2021/12/30 08:27:20;;;;;;;1.37;1.27;;;;;;;11.26;100.00;95913.50;6128510;23;20534;-85
2021/12/30 08:29:47;;;;;;;2.00;1.80;;;;;;;11.26;100.00;95917.88;6103083;23;20602;-85
2021/12/30 08:32:13;;;;;;;2.60;1.47;;;;;;;11.29;100.00;95913.22;6078197;23;20148;-85
2021/12/30 08:34:42;;;;;;;2.00;1.63;;;;;;;11.29;100.00;95912.38;6102946;23;20757;-86
2021/12/30 08:37:08;;;;;;;1.20;1.10;;;;;;;11.30;100.00;95909.63;6078294;23;20784;-81
2021/12/30 08:39:38;;;;;;;0.80;0.80;;;;;;;11.32;100.00;95907.75;6102343;23;20152;-86
2021/12/30 08:42:05;;;;;;;0.60;0.40;;;;;;;11.44;100.00;95910.97;6101375;23;20649;-86
2021/12/30 08:44:30;;;;;;;1.23;0.50;;;;;;;11.45;100.00;95911.78;6101164;23;20235;-86
2021/12/30 08:46:56;;;;;;;0.40;0.40;;;;;;;11.49;100.00;95910.53;6077189;23;20208;-85
2021/12/30 08:49:22;;;;;;;0.60;0.60;;;;;;;11.55;100.00;95915.97;6077316;23;20159;-85
2021/12/30 08:51:47;;;;;;;0.53;0.43;;;;;;;11.57;100.00;95906.25;6101306;23;20184;-86
2021/12/30 08:54:13;;;;;;;0.20;0.20;;;;;;;11.63;100.00;95905.66;6077240;23;20206;-85
2021/12/30 08:56:38;;;;;;;0.20;0.20;;;;;;;11.67;100.00;95908.00;6100898;23;20243;-85
2021/12/30 08:59:04;;;;;;;0.40;0.40;;;;;;;11.70;100.00;95911.09;6076230;23;20156;-86
2021/12/30 09:01:29;;;;;;;0.40;0.40;;;;;;;11.68;100.00;95912.22;6100468;23;20192;-81
2021/12/30 09:03:55;;;;;;;0.43;0.43;;;;;;;11.67;100.00;95910.59;6123574;23;20152;-82
2021/12/30 09:06:20;;;;;;;0.50;0.50;;;;;;;11.72;100.00;95910.97;6122790;23;20642;-82
2021/12/30 09:08:45;;;;;;;0.70;0.70;;;;;;;11.80;100.00;95911.09;6124355;23;20156;-81
2021/12/30 09:11:11;;;;;;;0.50;0.40;;;;;;;11.81;100.00;95917.91;6100094;23;20156;-79
2021/12/30 09:13:36;;;;;;;1.43;0.80;;;;;;;11.96;100.00;95911.25;6100559;23;20156;-83
2021/12/30 09:16:02;;;;;;;2.30;1.90;;;;;;;11.98;100.00;95918.91;6124128;23;20258;-81
2021/12/30 09:18:28;;;;;;;1.60;1.10;;;;;;;12.05;100.00;95917.38;6100811;23;20211;-82
2021/12/30 09:20:53;;;;;;;2.40;1.40;;;;;;;12.16;100.00;95912.75;6124869;23;20172;-81
2021/12/30 09:23:19;;;;;;;0.77;0.73;;;;;;;12.18;100.00;95912.59;6100429;23;20499;-83
2021/12/30 09:25:44;;;;;;;1.87;1.00;;;;;;;12.12;100.00;95908.00;6125181;23;20179;-82
2021/12/30 09:28:12;;;;;;;0.40;0.40;;;;;;;12.29;100.00;95915.00;6124890;23;20159;-81
2021/12/30 09:30:39;;;;;;;0.70;0.70;;;;;;;12.38;100.00;95913.28;6124096;23;20168;-82
2021/12/30 09:33:06;;;;;;;0.30;0.30;;;;;;;12.33;100.00;95918.13;6125448;23;20171;-81
2021/12/30 09:35:31;;;;;;;0.33;0.33;;;;;;;12.33;100.00;95920.72;6100256;23;20148;-81
2021/12/30 09:37:57;;;;;;;0.50;0.40;;;;;;;12.28;100.00;95920.34;6124595;23;20156;-83
2021/12/30 09:40:23;;;;;;;0.43;0.40;;;;;;;12.35;100.00;95921.38;6100761;23;20159;-80
2021/12/30 09:42:54;;;;;;;0.50;0.40;;;;;;;12.39;100.00;95920.94;6100055;23;20175;-82
2021/12/30 09:45:20;;;;;;;0.70;0.50;;;;;;;12.41;100.00;95931.22;6100719;23;20140;-81
2021/12/30 09:47:53;;;;;;;0.53;0.43;;;;;;;12.48;100.00;95929.66;6100237;23;20152;-83
2021/12/30 09:50:21;;;;;;;0.30;0.30;;;;;;;12.28;100.00;95925.53;6125921;23;20168;-85
2021/12/30 09:52:47;;;;;;;0.50;0.50;;;;;;;12.40;100.00;95926.97;6100167;23;20167;-84
2021/12/30 09:55:12;;;;;;;0.40;0.40;;;;;;;12.39;100.00;95923.56;6124298;23;20152;-83
2021/12/30 09:57:38;;;;;;;0.97;0.37;;;;;;;12.42;100.00;95931.06;6100582;23;20183;-83
2021/12/30 10:00:06;;;;;;;0.20;0.20;;;;;;;12.40;100.00;95929.59;6100882;23;20159;-82
2021/12/30 10:02:32;;;;;;;0.40;0.40;;;;;;;12.35;100.00;95937.00;6125671;23;20225;-83
2021/12/30 10:05:09;;;;;;;0.53;0.30;;;;;;;12.32;100.00;95932.94;6124732;23;20164;-83
2021/12/30 10:07:34;;;;;;;0.23;0.23;;;;;;;12.42;100.00;95943.25;6099995;23;20637;-82
2021/12/30 10:10:03;;;;;;;1.50;0.30;;;;;;;12.32;100.00;95937.31;6124605;23;20231;-83
2021/12/30 10:12:39;;;;;;;0.20;0.20;;;;;;;12.46;100.00;95936.81;6125713;23;20163;-83
2021/12/30 10:15:06;;;;;;;3.40;0.50;;;;;;;12.37;99.91;95945.50;6100010;23;20160;-82
2021/12/30 10:17:31;;;;;;;0.20;0.20;;;;;;;12.40;99.98;95946.03;6099807;23;20184;-82
2021/12/30 10:20:24;;;;;;;0.70;0.40;;;;;;;12.42;100.00;95948.47;6127477;23;20191;-85
2021/12/30 10:22:49;;;;;;;0.30;0.30;;;;;;;12.37;100.00;95954.16;6101498;23;20147;-83
2021/12/30 10:25:32;;;;;;;0.67;0.43;;;;;;;12.46;100.00;95955.03;6125305;23;20156;-84
2021/12/30 10:28:27;;;;;;;0.50;0.47;;;;;;;12.34;100.00;95958.81;6101032;23;20170;-80
2021/12/30 10:31:13;;;;;;;0.77;0.40;;;;;;;12.34;99.86;95959.63;6100471;23;20171;-84
2021/12/30 10:33:58;;;;;;;0.20;0.20;;;;;;;12.31;99.92;95956.50;6099487;23;20598;-84
2021/12/30 10:36:29;;;;;;;0.60;0.50;;;;;;;12.39;99.71;95954.81;6102473;23;20176;-86
2021/12/30 10:39:13;;;;;;;0.40;0.40;;;;;;;12.45;99.97;95954.19;6102969;23;20170;-84
2021/12/30 10:41:38;;;;;;;0.80;0.43;;;;;;;12.49;99.99;95939.09;6100303;23;20183;-84
2021/12/30 10:44:04;;;;;;;0.30;0.30;;;;;;;12.50;99.68;95935.53;6100440;23;20175;-84
2021/12/30 10:46:30;;;;;;;0.90;0.30;;;;;;;12.48;100.00;95942.69;6100282;23;20211;-83
2021/12/30 10:48:59;;;;;;;0.37;0.37;;;;;;;12.53;99.83;95937.81;6100653;23;20163;-83
2021/12/30 10:51:38;;;;;;;0.30;0.30;;;;;;;12.51;99.19;95942.38;6098776;23;20680;-85
2021/12/30 10:54:32;;;;;;;2.13;0.50;;;;;;;12.63;99.04;95942.94;6101018;23;20155;-81
2021/12/30 10:56:59;;;;;;;0.60;0.50;;;;;;;12.81;98.48;95945.53;6124927;23;20187;-82
2021/12/30 10:59:27;;;;;;;0.87;0.30;;;;;;;12.72;98.69;95955.91;6100311;23;20473;-82
2021/12/30 11:02:13;;;;;;;0.20;0.20;;;;;;;12.81;97.53;95955.94;6098799;23;20199;-82
2021/12/30 11:04:46;;;;;;;0.33;0.30;;;;;;;12.79;98.20;95955.28;6101613;23;20144;-86
2021/12/30 11:07:15;;;;;;;0.37;0.30;;;;;;;12.93;96.93;95952.97;6101127;23;20259;-84
2021/12/30 11:09:56;;;;;;;0.20;0.20;;;;;;;12.84;97.09;95953.06;6100784;23;20675;-84
2021/12/30 11:12:33;;;;;;;0.40;0.30;;;;;;;12.90;97.09;95949.84;6099995;23;20162;-83
2021/12/30 11:15:05;;;;;;;2.13;0.40;;;;;;;13.08;96.09;95942.00;6100739;23;20624;-83
2021/12/30 11:17:36;;;;;;;0.53;0.30;;;;;;;13.04;97.33;95938.88;6101879;23;20183;-83
2021/12/30 11:20:03;;;;;;;0.40;0.20;;;;;;;13.06;96.88;95942.13;6077528;23;20207;-83
2021/12/30 11:22:30;;;;;;;1.60;0.30;;;;;;;13.15;97.10;95943.81;6124476;23;20183;-83
2021/12/30 11:24:58;;;;;;;0.53;0.30;;;;;;;13.23;96.48;95933.47;6100917;23;20235;-83